createdAt,value
2023-11-24T00:00:42.572Z,11.35
2023-11-24T00:03:45.288Z,12.52
2023-11-24T00:06:47.752Z,11.23
2023-11-24T00:09:50.553Z,12.63
2023-11-24T00:12:53.027Z,10.88
2023-11-24T00:15:55.865Z,11.43
2023-11-24T00:18:58.327Z,10.05
2023-11-24T00:22:01.231Z,10.90
2023-11-24T00:25:03.878Z,10.98
2023-11-24T00:28:06.776Z,11.27
2023-11-24T00:31:09.400Z,12.13
2023-11-24T00:34:12.626Z,11.85
2023-11-24T00:37:15.161Z,10.93
2023-11-24T00:40:19.598Z,10.70
2023-11-24T00:43:23.455Z,12.25
2023-11-24T00:46:26.253Z,11.35
2023-11-24T00:49:28.647Z,11.25
2023-11-24T00:52:31.325Z,11.13
2023-11-24T00:55:33.828Z,11.43
2023-11-24T00:58:36.946Z,10.65
2023-11-24T01:01:39.431Z,10.98
2023-11-24T01:04:42.335Z,11.40
2023-11-24T01:07:44.764Z,12.30
2023-11-24T01:10:47.914Z,12.25
2023-11-24T01:13:50.384Z,11.77
2023-11-24T01:16:53.432Z,11.40
2023-11-24T01:19:55.822Z,10.77
2023-11-24T01:22:58.564Z,11.47
2023-11-24T01:26:00.868Z,12.52
2023-11-24T01:29:03.746Z,10.85
2023-11-24T01:32:06.554Z,11.77
2023-11-24T01:35:10.775Z,11.70
2023-11-24T01:38:13.489Z,10.33
2023-11-24T01:41:16.131Z,10.90
2023-11-24T01:44:19.922Z,11.10
2023-11-24T01:47:22.641Z,11.85
2023-11-24T01:50:25.604Z,10.35
2023-11-24T01:53:28.295Z,11.93
2023-11-24T01:56:32.193Z,12.18
2023-11-24T01:59:37.865Z,11.02
2023-11-24T02:02:43.936Z,11.60
2023-11-24T02:05:47.007Z,11.63
2023-11-24T02:08:49.450Z,11.73
2023-11-24T02:11:52.219Z,12.43
2023-11-24T02:14:54.721Z,12.73
2023-11-24T02:17:57.461Z,11.07
2023-11-24T02:21:02.053Z,10.63
2023-11-24T02:24:07.393Z,11.90
2023-11-24T02:27:09.850Z,10.98
2023-11-24T02:30:12.920Z,12.88
2023-11-24T02:33:16.502Z,11.82
2023-11-24T02:36:28.588Z,12.43
2023-11-24T02:39:31.242Z,12.43
2023-11-24T02:42:34.045Z,12.07
2023-11-24T02:45:37.231Z,14.02
2023-11-24T02:48:44.055Z,11.38
2023-11-24T02:51:46.623Z,13.35
2023-11-24T02:54:49.402Z,13.43
2023-11-24T02:57:51.870Z,13.68
2023-11-24T03:00:54.742Z,12.68
2023-11-24T03:03:57.287Z,12.95
2023-11-24T03:07:00.350Z,13.18
2023-11-24T03:10:04.389Z,11.53
2023-11-24T03:13:08.359Z,11.48
2023-11-24T03:16:12.095Z,13.35
2023-11-24T03:19:14.999Z,13.13
2023-11-24T03:22:17.378Z,11.90
2023-11-24T03:25:20.017Z,11.63
2023-11-24T03:28:22.381Z,12.18
2023-11-24T03:31:25.072Z,12.40
2023-11-24T03:34:27.993Z,12.23
2023-11-24T03:37:30.712Z,13.60
2023-11-24T03:40:35.153Z,13.37
2023-11-24T03:43:37.948Z,11.98
2023-11-24T03:46:40.376Z,12.35
2023-11-24T03:49:43.451Z,13.90
2023-11-24T03:52:45.903Z,13.57
2023-11-24T03:55:48.656Z,13.33
2023-11-24T03:58:51.012Z,13.45
2023-11-24T04:01:54.180Z,13.48
2023-11-24T04:04:57.416Z,15.35
2023-11-24T04:07:59.893Z,14.20
2023-11-24T04:11:03.555Z,14.13
2023-11-24T04:14:05.981Z,13.68
2023-11-24T04:17:10.937Z,14.23
2023-11-24T04:20:13.473Z,13.50
2023-11-24T04:23:16.271Z,13.98
2023-11-24T04:26:19.498Z,14.07
2023-11-24T04:29:22.893Z,15.30
2023-11-24T04:32:25.344Z,12.82
2023-11-24T04:35:28.525Z,14.27
2023-11-24T04:38:30.944Z,12.93
2023-11-24T04:41:33.561Z,12.97
2023-11-24T04:44:35.928Z,13.38
2023-11-24T04:47:40.216Z,13.55
2023-11-24T04:50:42.665Z,14.32
2023-11-24T04:53:45.317Z,12.40
2023-11-24T04:56:47.949Z,14.73
2023-11-24T04:59:50.613Z,15.32
2023-11-24T05:02:53.076Z,14.50
2023-11-24T05:05:55.746Z,16.83
2023-11-24T05:08:58.118Z,14.27
2023-11-24T05:12:00.790Z,14.13
2023-11-24T05:15:09.949Z,15.70
2023-11-24T05:18:14.185Z,13.68
2023-11-24T05:21:16.581Z,13.57
2023-11-24T05:24:19.260Z,13.95
2023-11-24T05:27:21.671Z,15.07
2023-11-24T05:30:24.775Z,14.73
2023-11-24T05:33:27.096Z,13.05
2023-11-24T05:36:29.790Z,13.38
2023-11-24T05:39:32.285Z,12.48
2023-11-24T05:42:35.073Z,12.43
2023-11-24T05:45:37.582Z,11.10
2023-11-24T05:48:40.256Z,13.80
2023-11-24T05:51:45.144Z,11.57
2023-11-24T05:54:49.510Z,12.25
2023-11-24T05:57:51.979Z,11.60
2023-11-24T06:00:54.698Z,10.85
2023-11-24T06:03:57.627Z,12.13
2023-11-24T06:07:00.091Z,11.02
2023-11-24T06:10:02.985Z,11.00
2023-11-24T06:13:05.466Z,12.30
2023-11-24T06:16:08.464Z,11.35
2023-11-24T06:19:10.929Z,12.32
2023-11-24T06:22:13.660Z,12.05
2023-11-24T06:25:16.746Z,12.18
2023-11-24T06:28:19.532Z,14.20
2023-11-24T06:31:21.918Z,12.43
2023-11-24T06:34:26.178Z,13.25
2023-11-24T06:37:28.726Z,13.62
2023-11-24T06:40:31.400Z,13.02
2023-11-24T06:43:33.789Z,15.07
2023-11-24T06:46:36.600Z,13.82
2023-11-24T06:49:39.049Z,14.07
2023-11-24T06:52:44.083Z,13.45
2023-11-24T06:55:46.562Z,13.48
2023-11-24T06:58:49.320Z,12.60
2023-11-24T07:01:52.141Z,13.90
2023-11-24T07:04:55.413Z,12.50
2023-11-24T07:07:57.782Z,9.93
2023-11-24T07:11:00.671Z,9.82
2023-11-24T07:14:03.459Z,10.67
2023-11-24T07:17:07.382Z,10.82
2023-11-24T07:20:12.662Z,11.98
2023-11-24T07:23:15.538Z,12.07
2023-11-24T07:26:19.373Z,15.90
2023-11-24T07:29:22.909Z,12.83
2023-11-24T07:32:29.567Z,14.80
2023-11-24T07:35:32.295Z,14.38
2023-11-24T07:38:34.652Z,14.87
2023-11-24T07:41:37.690Z,14.55
2023-11-24T07:44:40.088Z,12.07
2023-11-24T07:47:43.036Z,9.43
2023-11-24T07:50:45.593Z,5.53
2023-11-24T07:53:48.450Z,3.87
2023-11-24T07:56:50.882Z,2.83
2023-11-24T07:59:56.510Z,2.77
2023-11-24T08:02:59.006Z,2.62
2023-11-24T08:06:07.605Z,2.60
2023-11-24T08:09:10.572Z,2.90
2023-11-24T08:12:14.388Z,2.12
2023-11-24T08:15:17.639Z,1.83
2023-11-24T08:18:20.233Z,2.67
2023-11-24T08:21:22.688Z,2.00
2023-11-24T08:24:25.507Z,2.28
2023-11-24T08:27:28.268Z,2.40
2023-11-24T08:30:33.425Z,2.43
2023-11-24T08:33:36.231Z,2.25
2023-11-24T08:36:40.283Z,1.90
2023-11-24T08:39:42.824Z,2.20
2023-11-24T08:42:46.177Z,1.30
2023-11-24T08:45:48.944Z,0.83
2023-11-24T08:48:51.740Z,1.20
2023-11-24T08:51:54.187Z,1.27
2023-11-24T08:54:56.930Z,1.10
2023-11-24T08:58:02.271Z,0.65
2023-11-24T09:01:06.862Z,1.00
2023-11-24T09:04:11.384Z,0.90
2023-11-24T09:07:14.254Z,1.30
2023-11-24T09:10:17.675Z,0.90
2023-11-24T09:13:20.580Z,0.50
2023-11-24T09:16:23.235Z,1.33
2023-11-24T09:19:26.212Z,0.80
2023-11-24T09:22:28.604Z,0.90
2023-11-24T09:25:33.200Z,0.40
2023-11-24T09:28:36.094Z,0.47
2023-11-24T09:31:38.919Z,0.30
2023-11-24T09:34:41.499Z,0.50
2023-11-24T09:37:44.249Z,0.50
2023-11-24T09:40:47.369Z,0.62
2023-11-24T09:43:50.653Z,0.20
2023-11-24T09:46:54.264Z,0.40
2023-11-24T09:49:59.373Z,0.57
2023-11-24T09:53:01.830Z,0.60
2023-11-24T09:56:05.563Z,0.65
2023-11-24T09:59:09.834Z,0.50
2023-11-24T10:02:19.344Z,1.10
2023-11-24T10:05:22.805Z,1.10
2023-11-24T10:08:25.702Z,1.20
2023-11-24T10:11:34.501Z,0.43
2023-11-24T10:14:44.450Z,0.50
2023-11-24T10:17:49.973Z,0.60
2023-11-24T10:20:52.458Z,0.40
2023-11-24T10:23:55.402Z,0.70
2023-11-24T10:26:57.948Z,0.30
2023-11-24T10:30:00.637Z,0.60
2023-11-24T10:33:05.133Z,0.83
2023-11-24T10:36:10.049Z,0.62
2023-11-24T10:39:16.193Z,0.30
2023-11-24T10:42:20.550Z,0.82
2023-11-24T10:45:24.061Z,0.62
2023-11-24T10:48:59.094Z,0.43
2023-11-24T10:52:07.524Z,0.80
2023-11-24T10:55:15.195Z,0.40
2023-11-24T10:58:17.867Z,0.52
2023-11-24T11:01:24.459Z,0.50
2023-11-24T11:04:29.067Z,0.60
2023-11-24T11:07:42.231Z,0.40
2023-11-24T11:10:54.454Z,0.65
2023-11-24T11:13:59.166Z,0.80
2023-11-24T11:17:13.167Z,0.30
2023-11-24T11:20:21.365Z,1.00
2023-11-24T11:23:27.273Z,0.65
2023-11-24T11:26:46.819Z,0.50
2023-11-24T11:29:49.140Z,0.70
2023-11-24T11:33:05.148Z,0.80
2023-11-24T11:36:11.327Z,0.70
2023-11-24T11:39:19.131Z,0.40
2023-11-24T11:42:30.212Z,0.70
2023-11-24T11:45:34.218Z,0.55
2023-11-24T11:48:41.254Z,0.90
2023-11-24T11:51:45.622Z,0.87
2023-11-24T11:54:49.559Z,0.80
2023-11-24T11:57:58.233Z,0.70
2023-11-24T12:01:00.856Z,0.80
2023-11-24T12:04:05.187Z,0.60
2023-11-24T12:07:10.303Z,1.10
2023-11-24T12:10:13.088Z,1.37
2023-11-24T12:13:16.255Z,1.00
2023-11-24T12:16:19.110Z,0.90
2023-11-24T12:19:23.559Z,0.77
2023-11-24T12:22:29.487Z,0.70
2023-11-24T12:25:32.567Z,1.40
2023-11-24T12:28:35.472Z,0.80
2023-11-24T12:31:40.844Z,0.88
2023-11-24T12:34:44.781Z,0.75
2023-11-24T12:37:50.514Z,0.93
2023-11-24T12:40:53.487Z,0.75
2023-11-24T12:44:00.481Z,1.00
2023-11-24T12:47:16.608Z,1.05
2023-11-24T12:50:21.839Z,1.40
2023-11-24T12:53:24.767Z,0.90
2023-11-24T12:56:29.354Z,1.20
2023-11-24T12:59:32.020Z,1.60
2023-11-24T13:02:34.467Z,1.00
2023-11-24T13:05:39.621Z,1.08
2023-11-24T13:08:42.008Z,0.50
2023-11-24T13:11:44.754Z,5.45
2023-11-24T13:14:47.240Z,0.75
2023-11-24T13:17:50.744Z,1.23
2023-11-24T13:20:53.325Z,0.50
2023-11-24T13:23:56.105Z,0.67
2023-11-24T13:26:58.412Z,0.75
2023-11-24T13:30:01.341Z,1.05
2023-11-24T13:33:04.090Z,0.88
2023-11-24T13:36:07.364Z,0.70
2023-11-24T13:39:14.527Z,0.80
2023-11-24T13:42:17.952Z,0.88
2023-11-24T13:45:21.813Z,0.90
2023-11-24T13:48:25.208Z,1.30
2023-11-24T13:51:28.501Z,1.35
2023-11-24T13:54:31.954Z,0.90
2023-11-24T13:57:34.788Z,1.20
2023-11-24T14:00:37.970Z,0.80
2023-11-24T14:03:41.412Z,0.80
2023-11-24T14:06:49.014Z,0.65
2023-11-24T14:09:51.746Z,0.47
2023-11-24T14:12:54.179Z,1.58
2023-11-24T14:15:56.960Z,0.95
2023-11-24T14:19:00.639Z,0.93
2023-11-24T14:22:05.815Z,1.92
2023-11-24T14:25:09.515Z,1.40
2023-11-24T14:28:12.423Z,1.55
2023-11-24T14:31:14.920Z,1.42
2023-11-24T14:34:20.229Z,2.42
2023-11-24T14:37:22.996Z,0.90
2023-11-24T14:40:25.779Z,1.07
2023-11-24T14:43:29.477Z,1.00
2023-11-24T14:46:32.612Z,2.30
2023-11-24T14:49:35.480Z,1.02
2023-11-24T14:52:38.281Z,1.20
2023-11-24T14:55:41.955Z,1.70
2023-11-24T14:58:44.735Z,1.02
2023-11-24T15:01:47.320Z,1.70
2023-11-24T15:04:50.383Z,1.92
2023-11-24T15:07:52.880Z,2.05
2023-11-24T15:10:55.595Z,1.30
2023-11-24T15:13:57.930Z,1.10
2023-11-24T15:17:07.257Z,0.80
2023-11-24T15:20:27.097Z,0.90
2023-11-24T15:23:30.781Z,1.10
2023-11-24T15:26:37.335Z,1.57
2023-11-24T15:29:40.864Z,1.10
2023-11-24T15:32:43.780Z,1.15
2023-11-24T15:35:49.843Z,1.20
2023-11-24T15:38:52.295Z,1.48
2023-11-24T15:41:54.994Z,1.50
2023-11-24T15:45:01.781Z,1.58
2023-11-24T15:48:08.974Z,1.87
2023-11-24T15:51:23.179Z,1.73
2023-11-24T15:54:27.874Z,2.08
2023-11-24T15:57:30.337Z,1.73
2023-11-24T16:00:34.770Z,1.92
2023-11-24T16:03:37.583Z,2.40
2023-11-24T16:06:42.309Z,2.10
2023-11-24T16:09:46.330Z,1.80
2023-11-24T16:12:49.898Z,1.60
2023-11-24T16:15:52.977Z,2.25
2023-11-24T16:18:55.924Z,1.77
2023-11-24T16:21:59.410Z,2.10
2023-11-24T16:25:01.827Z,2.50
2023-11-24T16:28:04.960Z,4.10
2023-11-24T16:31:07.370Z,3.35
2023-11-24T16:34:10.832Z,2.60
2023-11-24T16:37:13.507Z,2.20
2023-11-24T16:40:16.743Z,1.50
2023-11-24T16:43:19.482Z,1.97
2023-11-24T16:46:22.581Z,1.55
2023-11-24T16:49:25.434Z,1.92
2023-11-24T16:52:28.323Z,1.50
2023-11-24T16:55:30.986Z,2.12
2023-11-24T16:58:35.242Z,2.07
2023-11-24T17:01:37.832Z,2.00
2023-11-24T17:04:40.756Z,2.28
2023-11-24T17:07:43.393Z,1.33
2023-11-24T17:10:46.443Z,1.50
2023-11-24T17:13:48.926Z,1.67
2023-11-24T17:16:52.406Z,1.90
2023-11-24T17:19:55.733Z,1.85
2023-11-24T17:22:58.580Z,1.58
2023-11-24T17:26:00.966Z,1.70
2023-11-24T17:29:03.871Z,1.27
2023-11-24T17:32:06.590Z,1.40
2023-11-24T17:35:13.663Z,1.20
2023-11-24T17:38:19.642Z,1.67
2023-11-24T17:41:25.351Z,1.23
2023-11-24T17:44:29.725Z,1.10
2023-11-24T17:47:33.633Z,1.70
2023-11-24T17:50:36.127Z,1.10
2023-11-24T17:53:38.932Z,1.33
2023-11-24T17:56:43.018Z,1.15
2023-11-24T17:59:45.678Z,1.07
2023-11-24T18:02:51.260Z,0.95
2023-11-24T18:05:54.250Z,0.93
2023-11-24T18:08:58.685Z,0.90
2023-11-24T18:12:01.479Z,1.30
2023-11-24T18:15:05.511Z,1.17
2023-11-24T18:18:08.309Z,0.93
2023-11-24T18:21:11.557Z,1.37
2023-11-24T18:24:15.926Z,1.20
2023-11-24T18:27:19.858Z,1.20
2023-11-24T18:30:22.828Z,1.00
2023-11-24T18:33:26.728Z,1.30
2023-11-24T18:36:29.733Z,1.10
2023-11-24T18:39:32.997Z,1.30
2023-11-24T18:42:35.790Z,1.48
2023-11-24T18:45:38.209Z,0.80
2023-11-24T18:48:40.858Z,1.50
2023-11-24T18:51:44.144Z,1.40
2023-11-24T18:54:48.952Z,1.92
2023-11-24T18:57:53.068Z,1.83
2023-11-24T19:00:55.825Z,1.73
2023-11-24T19:03:58.302Z,1.92
2023-11-24T19:07:02.885Z,1.98
2023-11-24T19:10:06.319Z,1.45
2023-11-24T19:13:08.981Z,1.83
2023-11-24T19:16:12.824Z,2.03
2023-11-24T19:19:16.034Z,1.90
2023-11-24T19:22:19.267Z,2.10
2023-11-24T19:25:22.039Z,2.10
2023-11-24T19:28:24.428Z,2.30
2023-11-24T19:31:28.770Z,1.90
2023-11-24T19:34:31.232Z,1.75
2023-11-24T19:37:33.982Z,1.95
2023-11-24T19:40:36.525Z,2.67
2023-11-24T19:43:39.232Z,2.45
2023-11-24T19:46:41.722Z,2.40
2023-11-24T19:49:47.197Z,2.60
2023-11-24T19:52:49.800Z,2.55
2023-11-24T19:55:52.833Z,1.77
2023-11-24T19:58:55.211Z,2.47
2023-11-24T20:01:59.876Z,2.30
2023-11-24T20:05:02.905Z,2.78
2023-11-24T20:08:05.857Z,2.75
2023-11-24T20:11:09.638Z,2.20
2023-11-24T20:14:12.034Z,2.72
2023-11-24T20:17:14.763Z,2.90
2023-11-24T20:20:17.938Z,2.87
2023-11-24T20:23:21.016Z,2.58
2023-11-24T20:26:23.427Z,2.35
2023-11-24T20:29:26.162Z,3.55
2023-11-24T20:32:28.688Z,2.40
2023-11-24T20:35:31.430Z,2.55
2023-11-24T20:38:33.751Z,3.30
2023-11-24T20:41:41.045Z,2.60
2023-11-24T20:44:43.716Z,2.37
2023-11-24T20:47:46.460Z,2.57
2023-11-24T20:50:48.836Z,2.12
2023-11-24T20:53:51.493Z,2.67
2023-11-24T20:56:53.893Z,3.12
2023-11-24T20:59:56.617Z,2.40
2023-11-24T21:02:59.014Z,1.93
2023-11-24T21:06:01.735Z,1.98
2023-11-24T21:09:04.136Z,1.92
2023-11-24T21:12:08.229Z,2.83
2023-11-24T21:15:15.614Z,1.60
2023-11-24T21:18:18.854Z,1.80
2023-11-24T21:21:21.286Z,1.48
2023-11-24T21:24:23.958Z,1.60
2023-11-24T21:27:27.121Z,1.17
2023-11-24T21:30:30.035Z,1.83
2023-11-24T21:33:32.910Z,1.10
2023-11-24T21:36:36.068Z,1.40
2023-11-24T21:39:38.360Z,1.50
2023-11-24T21:42:42.776Z,1.30
2023-11-24T21:45:45.254Z,1.60
2023-11-24T21:48:48.967Z,1.60
2023-11-24T21:51:51.312Z,1.23
2023-11-24T21:54:54.378Z,1.52
2023-11-24T21:57:56.951Z,1.12
2023-11-24T22:00:59.847Z,1.67
2023-11-24T22:04:02.662Z,1.83
2023-11-24T22:07:05.373Z,1.48
2023-11-24T22:10:11.844Z,1.15
2023-11-24T22:13:14.282Z,1.80
2023-11-24T22:16:17.107Z,1.80
2023-11-24T22:19:20.424Z,1.43
2023-11-24T22:22:23.180Z,1.40
2023-11-24T22:25:25.602Z,1.35
2023-11-24T22:28:28.394Z,1.58
2023-11-24T22:31:30.956Z,1.25
2023-11-24T22:34:33.745Z,1.73
2023-11-24T22:37:36.557Z,1.62
2023-11-24T22:40:40.488Z,1.40
2023-11-24T22:43:44.063Z,1.60
2023-11-24T22:46:46.879Z,0.85
2023-11-24T22:49:49.799Z,0.93
2023-11-24T22:52:52.758Z,1.00
2023-11-24T22:55:55.111Z,1.10
2023-11-24T22:58:59.743Z,0.82
2023-11-24T23:02:02.315Z,0.98
2023-11-24T23:05:06.504Z,0.80
2023-11-24T23:08:08.908Z,1.00
2023-11-24T23:11:16.719Z,0.40
2023-11-24T23:14:21.111Z,0.65
2023-11-24T23:17:23.966Z,0.80
2023-11-24T23:20:26.455Z,0.80
2023-11-24T23:23:29.144Z,0.40
2023-11-24T23:26:31.475Z,0.70
2023-11-24T23:29:36.665Z,0.50
2023-11-24T23:32:39.021Z,0.85
2023-11-24T23:35:41.818Z,0.73
2023-11-24T23:38:46.608Z,0.93
2023-11-24T23:41:49.276Z,0.80
2023-11-24T23:44:51.656Z,0.90
2023-11-24T23:47:54.358Z,0.80
2023-11-24T23:50:56.825Z,1.20
2023-11-24T23:53:59.520Z,0.95
2023-11-24T23:57:01.868Z,0.82
